SCCH

Details ICAO SCCH
Name General Bernardo O Higgins
Region Chile
Timezone America/Santiago (UTC-3.0)
Plans Departing 5
Arriving 8
Stats Elevation 495 ft / 151 m (AMSL)
Location -36.582497° -72.031368°
Runways 1
Magnetic Variation 4.752° E
Sunrise 2017-12-13 09:24:58 UTC / 2017-12-13 06:24:58 Local
Sunset 2017-12-14 00:02:42 UTC / 2017-12-13 21:02:42 Local
Advertisement - Login to hide

Runways

ID Width Length Bearing (true) Bearing (mag) Surface Threshold Offset Overrun Length
04 98 ft / 30 m 5,742 ft / 1,750 m 45.00° 40.25° Asphalt 0 ft / 0 m 400 ft / 122 m
22 98 ft / 30 m 5,742 ft / 1,750 m 225.00° 220.25° Asphalt 0 ft / 0 m 279 ft / 85 m

Map

Weather


0- 5 10 15 20 25 30 35+ Temperature / ° C

Clouds and Precipitation
Forecast for 2017-12-14 00:00 UTC. Updated an hour ago

Ground ~20,000 ft ~40,000 ft Winds

METAR

SCCH 132200Z 27007KT 9999 FEW040 SCT200 23/12 Q1018

TAF

Not found

Frequencies

Tower 127.70 MHz INFO
Warning: Do not use this data for real-world aviation or navigation. No guarantee of current accuracy is given.